Time;durP1;ratioP1;P1;durP2;ratioP2;P2;SDS_P1;SDS_P2;PMS_P1;PMS_P2;Temp;Humidity;BMP_temperature;BMP_pressure;BME280_temperature;BME280_humidity;BME280_pressure;Samples;Min_cycle;Max_cycle;Signal;HPM_P1;HPM_P2
2023/12/27 00:01:37;;;;;;;;;12.33;12.00;;;;;11.38;88.82;101698.75;4999628;28;45371;-55
2023/12/27 00:04:02;;;;;;;;;17.00;13.67;;;;;11.29;88.97;101688.84;4999835;28;45373;-53
2023/12/27 00:06:28;;;;;;;;;19.00;17.00;;;;;11.40;88.02;101704.78;4999510;28;46087;-53
2023/12/27 00:08:53;;;;;;;;;19.67;17.67;;;;;11.36;88.29;101702.50;4999471;28;45474;-54
2023/12/27 00:11:18;;;;;;;;;12.67;11.00;;;;;11.34;88.57;101717.78;4999557;28;45385;-55
2023/12/27 00:13:44;;;;;;;;;15.00;12.00;;;;;11.34;88.64;101707.13;4999769;28;45269;-54
2023/12/27 00:16:10;;;;;;;;;15.00;13.33;;;;;11.33;88.63;101700.09;4999400;28;45311;-54
2023/12/27 00:18:35;;;;;;;;;17.67;13.00;;;;;11.32;88.49;101695.75;4999187;28;45318;-54
2023/12/27 00:21:00;;;;;;;;;20.67;14.67;;;;;11.31;88.23;101686.06;4999332;28;45371;-56
2023/12/27 00:23:27;;;;;;;;;18.67;15.00;;;;;11.30;88.56;101679.06;4999365;28;45399;-52
2023/12/27 00:25:52;;;;;;;;;16.00;13.00;;;;;11.30;88.37;101684.38;4998935;28;47120;-51
2023/12/27 00:28:19;;;;;;;;;17.00;14.33;;;;;11.30;88.06;101689.72;4999075;28;45251;-53
2023/12/27 00:30:44;;;;;;;;;19.67;16.33;;;;;11.28;88.50;101697.81;4999170;28;45420;-57
2023/12/27 00:33:09;;;;;;;;;15.33;14.00;;;;;11.31;87.96;101697.56;4999225;28;45416;-56
2023/12/27 00:35:35;;;;;;;;;14.00;12.67;;;;;11.32;88.15;101690.41;4998781;28;46020;-56
2023/12/27 00:38:00;;;;;;;;;10.33;10.33;;;;;11.30;87.97;101685.22;4998798;28;45398;-56
2023/12/27 00:40:25;;;;;;;;;13.00;13.00;;;;;11.26;87.75;101672.28;4999132;28;45378;-57
2023/12/27 00:42:51;;;;;;;;;14.00;12.67;;;;;11.25;87.97;101671.47;4999209;28;45306;-59
2023/12/27 00:45:16;;;;;;;;;14.67;12.00;;;;;11.17;87.64;101653.44;4998644;28;45394;-56
2023/12/27 00:47:46;;;;;;;;;17.00;13.33;;;;;11.17;87.81;101668.59;4998918;28;45425;-56
2023/12/27 00:50:11;;;;;;;;;12.33;12.33;;;;;11.14;88.25;101659.03;4999154;28;45259;-56
2023/12/27 00:52:36;;;;;;;;;12.33;12.33;;;;;11.17;88.26;101657.94;4999041;28;45421;-55
2023/12/27 00:55:02;;;;;;;;;16.33;10.67;;;;;11.11;88.13;101653.09;4998659;28;45964;-56
2023/12/27 00:57:28;;;;;;;;;13.33;10.00;;;;;11.02;88.46;101644.06;4998710;28;45331;-56
2023/12/27 00:59:53;;;;;;;;;12.67;11.67;;;;;11.02;88.16;101660.03;4997860;28;45384;-56
2023/12/27 01:02:18;;;;;;;;;12.00;10.33;;;;;11.01;88.57;101660.19;4999146;28;45595;-54
2023/12/27 01:04:44;;;;;;;;;9.33;9.00;;;;;11.00;88.56;101659.34;4998475;28;45488;-54
2023/12/27 01:07:09;;;;;;;;;15.67;12.00;;;;;10.98;88.31;101645.28;4998270;28;45326;-54
2023/12/27 01:09:34;;;;;;;;;15.33;10.67;;;;;10.96;88.32;101640.09;4997525;28;45438;-55
2023/12/27 01:12:00;;;;;;;;;15.33;12.00;;;;;10.96;88.24;101645.44;4998832;28;45346;-55
2023/12/27 01:14:25;;;;;;;;;13.67;10.33;;;;;10.96;88.42;101640.09;4998279;28;47263;-56
2023/12/27 01:16:50;;;;;;;;;11.00;8.00;;;;;10.97;88.38;101646.28;4998275;28;45424;-56
2023/12/27 01:19:16;;;;;;;;;14.00;8.00;;;;;10.94;88.26;101652.69;4998365;28;45353;-55
2023/12/27 01:21:41;;;;;;;;;12.67;11.00;;;;;10.92;88.20;101649.31;4998563;28;45385;-55
2023/12/27 01:24:06;;;;;;;;;13.67;12.00;;;;;10.94;88.10;101652.69;4996661;28;48651;-54
2023/12/27 01:26:32;;;;;;;;;12.00;12.00;;;;;10.95;88.40;101667.69;4998175;28;45360;-55
2023/12/27 01:28:57;;;;;;;;;9.67;8.67;;;;;10.98;88.59;101671.91;4998389;28;45316;-56
2023/12/27 01:31:22;;;;;;;;;11.33;10.33;;;;;10.97;88.39;101663.09;4998431;28;45315;-52
2023/12/27 01:33:47;;;;;;;;;10.00;10.00;;;;;10.98;88.28;101661.25;4998044;28;48003;-53
2023/12/27 01:36:13;;;;;;;;;12.67;9.33;;;;;10.98;87.93;101655.94;4996705;28;45846;-54
2023/12/27 01:38:38;;;;;;;;;11.67;11.00;;;;;10.88;87.65;101633.72;4998284;28;45390;-51
2023/12/27 01:41:04;;;;;;;;;10.00;8.33;;;;;10.98;88.00;101648.78;4998195;28;45386;-54
2023/12/27 01:43:29;;;;;;;;;16.67;12.00;;;;;10.94;87.97;101638.53;4997825;28;45334;-55
2023/12/27 01:45:55;;;;;;;;;11.67;8.67;;;;;10.86;87.85;101633.00;4998116;28;45257;-55
2023/12/27 01:48:21;;;;;;;;;9.33;7.00;;;;;10.89;88.12;101648.72;4998002;28;45375;-53
2023/12/27 01:50:51;;;;;;;;;11.33;9.67;;;;;10.84;88.25;101656.25;4998007;28;45375;-53
2023/12/27 01:53:17;;;;;;;;;12.00;10.00;;;;;10.80;88.14;101660.97;4997399;28;46040;-56
2023/12/27 01:55:44;;;;;;;;;11.67;8.67;;;;;10.82;88.21;101660.84;4997703;28;45370;-54
2023/12/27 01:58:12;;;;;;;;;11.00;8.67;;;;;10.79;88.19;101642.44;4997870;28;45275;-55
2023/12/27 02:00:41;;;;;;;;;14.67;8.00;;;;;10.72;88.36;101634.13;4997942;28;45557;-51
2023/12/27 02:03:06;;;;;;;;;11.67;11.00;;;;;10.68;88.61;101636.19;4997571;28;46402;-53
2023/12/27 02:05:32;;;;;;;;;8.67;8.00;;;;;10.70;88.48;101644.03;4997455;28;45309;-52
2023/12/27 02:07:59;;;;;;;;;8.00;8.00;;;;;10.69;88.76;101613.94;4997493;28;45829;-52
2023/12/27 02:10:25;;;;;;;;;12.33;10.00;;;;;10.68;89.02;101620.22;4997736;28;45230;-51
2023/12/27 02:12:51;;;;;;;;;8.00;8.00;;;;;10.67;88.85;101628.34;4997385;28;46582;-51
2023/12/27 02:15:16;;;;;;;;;13.67;10.00;;;;;10.61;88.60;101624.34;4997195;28;45325;-52
2023/12/27 02:17:43;;;;;;;;;15.00;10.33;;;;;10.61;88.51;101613.72;4996451;28;45313;-54
2023/12/27 02:20:09;;;;;;;;;11.67;10.00;;;;;10.67;88.57;101641.66;4997467;28;45444;-55
2023/12/27 02:22:35;;;;;;;;;9.67;8.00;;;;;10.67;88.54;101652.31;4997088;28;45509;-55
2023/12/27 02:25:01;;;;;;;;;11.00;10.00;;;;;10.68;88.73;101636.19;4997087;28;45389;-53
2023/12/27 02:27:27;;;;;;;;;14.00;11.00;;;;;10.71;88.43;101624.47;4996023;28;45256;-53
2023/12/27 02:29:53;;;;;;;;;13.00;7.00;;;;;10.72;87.98;101624.34;4997485;28;45251;-52
2023/12/27 02:32:18;;;;;;;;;10.33;7.33;;;;;10.71;87.86;101635.97;4997094;28;45540;-53
2023/12/27 02:34:43;;;;;;;;;9.67;7.33;;;;;10.69;87.37;101624.56;4997347;28;45439;-55
2023/12/27 02:37:08;;;;;;;;;12.67;7.00;;;;;10.69;87.90;101637.88;4996965;28;45466;-56
2023/12/27 02:39:34;;;;;;;;;13.00;8.00;;;;;10.67;87.50;101631.84;4997376;28;45341;-54
2023/12/27 02:41:59;;;;;;;;;7.00;7.00;;;;;10.66;87.49;101619.53;4997023;28;45300;-55
2023/12/27 02:44:26;;;;;;;;;12.00;8.00;;;;;10.63;87.56;101619.78;4996904;28;45382;-55
2023/12/27 02:46:52;;;;;;;;;8.00;8.00;;;;;10.62;87.57;101623.41;4997008;28;45347;-55
2023/12/27 02:49:17;;;;;;;;;8.67;8.67;;;;;10.62;87.45;101598.59;4997125;28;45256;-56
2023/12/27 02:51:43;;;;;;;;;9.00;6.67;;;;;10.62;87.08;101604.78;4996911;28;45375;-54
2023/12/27 02:54:08;;;;;;;;;17.00;10.00;;;;;10.61;87.03;101575.63;4996746;28;45650;-55
2023/12/27 02:56:33;;;;;;;;;10.67;8.00;;;;;10.62;87.58;101571.97;4996928;28;45424;-54
2023/12/27 02:58:58;;;;;;;;;8.00;8.00;;;;;10.62;87.32;101569.31;4997012;28;45422;-54
2023/12/27 03:01:24;;;;;;;;;12.33;9.33;;;;;10.58;87.36;101573.25;4996716;28;49311;-52
2023/12/27 03:03:49;;;;;;;;;11.33;9.00;;;;;10.56;87.47;101576.00;4996731;28;45465;-54
2023/12/27 03:06:14;;;;;;;;;13.33;8.00;;;;;10.57;87.47;101576.84;4996997;28;45152;-54
2023/12/27 03:08:40;;;;;;;;;12.00;8.00;;;;;10.58;87.08;101582.06;4997004;28;45540;-54
2023/12/27 03:11:06;;;;;;;;;10.33;9.00;;;;;10.61;87.32;101584.44;4996778;28;46975;-56
2023/12/27 03:13:32;;;;;;;;;8.67;8.00;;;;;10.65;87.06;101582.38;4996943;28;45406;-55
2023/12/27 03:15:57;;;;;;;;;6.33;6.33;;;;;10.65;87.06;101566.41;4996727;28;45342;-55
2023/12/27 03:18:23;;;;;;;;;8.67;6.33;;;;;10.68;86.68;101574.16;4996874;28;45423;-54
2023/12/27 03:20:48;;;;;;;;;9.00;7.67;;;;;10.72;86.51;101583.56;4996359;28;45495;-51
2023/12/27 03:23:14;;;;;;;;;8.67;7.00;;;;;10.73;86.26;101574.63;4995720;28;47221;-54
2023/12/27 03:25:40;;;;;;;;;8.67;6.00;;;;;10.75;85.99;101575.34;4996629;28;45268;-50
2023/12/27 03:28:05;;;;;;;;;6.33;6.33;;;;;10.73;86.24;101563.97;4996779;28;45235;-55
2023/12/27 03:30:30;;;;;;;;;11.33;6.67;;;;;10.73;86.09;101562.16;4996681;28;46227;-55
2023/12/27 03:32:56;;;;;;;;;14.00;6.67;;;;;10.73;86.08;101567.47;4995685;28;45193;-54
2023/12/27 03:35:21;;;;;;;;;11.67;8.33;;;;;10.78;85.75;101560.91;4996477;28;45403;-55
2023/12/27 03:37:46;;;;;;;;;8.00;6.33;;;;;10.78;85.60;101550.28;4996844;28;45243;-55
2023/12/27 03:40:12;;;;;;;;;5.67;5.67;;;;;10.76;85.22;101542.44;4995146;28;46862;-56
2023/12/27 03:42:37;;;;;;;;;8.67;7.67;;;;;10.65;85.18;101531.81;4996496;28;45334;-56
2023/12/27 03:45:03;;;;;;;;;10.00;4.00;;;;;10.76;85.46;101542.44;4996306;28;45199;-55
2023/12/27 03:47:28;;;;;;;;;8.00;6.00;;;;;10.79;85.21;101543.97;4996597;28;45255;-55
2023/12/27 03:49:53;;;;;;;;;7.33;5.67;;;;;10.76;85.67;101537.09;4996160;28;45303;-54
2023/12/27 03:52:19;;;;;;;;;10.00;8.00;;;;;10.71;85.64;101534.84;4995917;28;45364;-56
2023/12/27 03:54:44;;;;;;;;;7.00;6.00;;;;;10.66;85.86;101531.72;4996342;28;45448;-56
2023/12/27 03:57:09;;;;;;;;;9.67;7.00;;;;;10.67;85.45;101533.41;4996445;28;45415;-54
2023/12/27 03:59:38;;;;;;;;;12.00;7.33;;;;;10.64;85.96;101528.31;4996187;28;46341;-51
2023/12/27 04:02:04;;;;;;;;;11.33;7.33;;;;;10.62;85.52;101529.41;4996118;28;45454;-55
2023/12/27 04:04:30;;;;;;;;;11.67;7.67;;;;;10.59;86.10;101530.53;4995913;28;45509;-56
2023/12/27 04:06:55;;;;;;;;;10.33;7.33;;;;;10.60;85.60;101526.06;4996312;28;45284;-55
2023/12/27 04:09:20;;;;;;;;;12.67;7.00;;;;;10.54;85.59;101514.13;4995631;28;45449;-55
2023/12/27 04:11:46;;;;;;;;;12.00;7.33;;;;;10.57;85.64;101527.13;4995953;28;45350;-56
2023/12/27 04:14:15;;;;;;;;;12.00;8.67;;;;;10.55;85.64;101529.09;4996350;28;45429;-55
2023/12/27 04:16:41;;;;;;;;;12.67;6.67;;;;;10.55;85.88;101528.25;4996161;28;45333;-50
2023/12/27 04:19:06;;;;;;;;;7.00;7.00;;;;;10.55;85.46;101526.44;4995769;28;45446;-49
2023/12/27 04:21:31;;;;;;;;;7.00;6.00;;;;;10.52;85.98;101521.38;4995961;28;45259;-50
2023/12/27 04:23:57;;;;;;;;;7.67;6.00;;;;;10.52;86.03;101529.34;4995589;28;45336;-51
2023/12/27 04:26:22;;;;;;;;;8.67;6.33;;;;;10.48;85.57;101518.09;4995991;28;45277;-55
2023/12/27 04:28:47;;;;;;;;;3.00;2.00;;;;;10.52;86.09;101513.38;4995523;28;46095;-55
2023/12/27 04:31:13;;;;;;;;;7.67;7.00;;;;;10.47;85.57;101500.47;4995746;28;45418;-55
2023/12/27 04:33:38;;;;;;;;;0.00;0.00;;;;;10.48;85.78;101501.31;4995872;28;45549;-55
2023/12/27 04:36:04;;;;;;;;;7.67;6.67;;;;;10.43;85.74;101499.03;4995713;28;45494;-55
2023/12/27 04:38:29;;;;;;;;;8.00;7.67;;;;;10.41;86.12;101494.81;4995331;28;45366;-54
2023/12/27 04:40:55;;;;;;;;;14.00;10.00;;;;;10.41;86.15;101485.03;4995365;28;45251;-53
2023/12/27 04:43:20;;;;;;;;;12.00;6.67;;;;;10.40;86.04;101475.34;4996976;28;45415;-55
2023/12/27 04:45:45;;;;;;;;;11.00;10.00;;;;;10.39;86.17;101486.13;4999396;28;45553;-53
2023/12/27 04:48:11;;;;;;;;;11.00;11.00;;;;;10.37;86.00;101482.75;4997485;28;48131;-55
2023/12/27 04:50:36;;;;;;;;;8.67;7.67;;;;;10.32;86.08;101479.59;4998662;28;45337;-55
2023/12/27 04:53:01;;;;;;;;;11.67;10.00;;;;;10.32;86.41;101475.13;4998793;28;45363;-54
2023/12/27 04:55:27;;;;;;;;;12.00;8.67;;;;;10.23;86.04;101462.56;4998761;28;45331;-54
2023/12/27 04:57:52;;;;;;;;;7.33;7.33;;;;;10.34;86.04;101465.22;4998494;28;46070;-52
2023/12/27 05:00:18;;;;;;;;;5.67;5.00;;;;;10.32;85.97;101475.13;4998834;28;45316;-51
2023/12/27 05:02:43;;;;;;;;;6.67;6.00;;;;;10.33;85.97;101476.00;4999028;28;45420;-51
2023/12/27 05:05:08;;;;;;;;;9.00;7.00;;;;;10.34;85.59;101490.97;5013942;28;45584;-47
2023/12/27 05:07:33;;;;;;;;;7.33;7.00;;;;;10.33;85.65;101481.31;4998562;28;46895;-51
2023/12/27 05:09:59;;;;;;;;;18.00;13.33;;;;;10.28;85.40;101470.19;4998586;28;45334;-51
2023/12/27 05:12:24;;;;;;;;;11.00;8.00;;;;;10.33;85.54;101481.31;4999048;28;45275;-52
2023/12/27 05:14:49;;;;;;;;;12.33;6.67;;;;;10.33;85.76;101497.28;4999016;28;45505;-54
2023/12/27 05:17:15;;;;;;;;;9.67;6.00;;;;;10.35;85.68;101480.19;4998466;28;48884;-56
2023/12/27 05:19:40;;;;;;;;;8.33;6.00;;;;;10.36;85.42;101481.88;4998589;28;45431;-52
2023/12/27 05:22:05;;;;;;;;;6.00;6.00;;;;;10.36;85.52;101486.34;4998965;28;45457;-52
2023/12/27 05:24:31;;;;;;;;;6.00;6.00;;;;;10.31;85.54;101478.75;4998646;28;45461;-55
2023/12/27 05:26:56;;;;;;;;;13.00;8.00;;;;;10.35;85.14;101479.34;4998065;28;46353;-57
2023/12/27 05:29:21;;;;;;;;;11.67;8.00;;;;;10.29;85.36;101466.59;4998192;28;45384;-51
2023/12/27 05:31:47;;;;;;;;;5.33;3.00;;;;;10.33;85.03;101471.53;4998436;28;45507;-50
2023/12/27 05:34:12;;;;;;;;;8.00;7.00;;;;;10.33;85.17;101471.53;4998448;28;45387;-53
2023/12/27 05:36:37;;;;;;;;;7.33;6.00;;;;;10.31;84.96;101469.94;4997887;28;45900;-53
2023/12/27 05:39:03;;;;;;;;;6.67;6.67;;;;;10.24;84.82;101456.31;4997778;28;45260;-53
2023/12/27 05:41:29;;;;;;;;;6.67;6.33;;;;;10.27;84.71;101469.34;4998145;28;45456;-52
2023/12/27 05:43:54;;;;;;;;;8.00;8.00;;;;;10.28;85.04;101468.41;4998126;28;45446;-53
2023/12/27 05:46:20;;;;;;;;;5.67;5.67;;;;;10.31;84.74;101467.28;4997879;28;46072;-53
2023/12/27 05:48:45;;;;;;;;;7.00;6.00;;;;;10.27;84.30;101461.38;4998009;28;45290;-54
2023/12/27 05:51:11;;;;;;;;;2.67;2.00;;;;;10.26;84.49;101464.19;4998094;28;45377;-55
2023/12/27 05:53:36;;;;;;;;;10.33;7.67;;;;;10.28;84.53;101463.09;4998052;28;45303;-56
2023/12/27 05:56:02;;;;;;;;;8.33;6.00;;;;;10.27;84.40;101457.88;4997115;28;46343;-51
2023/12/27 05:58:28;;;;;;;;;9.67;6.00;;;;;10.20;84.47;101461.03;4997873;28;45417;-54
2023/12/27 06:00:53;;;;;;;;;7.00;6.67;;;;;10.21;84.45;101451.22;4997797;28;45243;-55
2023/12/27 06:03:19;;;;;;;;;9.67;6.33;;;;;10.18;84.68;101457.63;4998149;28;45267;-56
2023/12/27 06:05:44;;;;;;;;;10.67;7.00;;;;;10.15;84.56;101447.25;4997891;28;45349;-55
2023/12/27 06:08:09;;;;;;;;;8.67;6.00;;;;;10.11;84.88;101451.16;4997909;28;45414;-55
2023/12/27 06:10:36;;;;;;;;;7.33;7.33;;;;;10.15;84.72;101457.03;4997446;28;45426;-55
2023/12/27 06:13:02;;;;;;;;;10.67;6.67;;;;;10.10;84.53;101444.13;4997769;28;45424;-55
2023/12/27 06:15:27;;;;;;;;;6.00;6.00;;;;;10.14;84.70;101455.34;4997464;28;45495;-56
2023/12/27 06:17:52;;;;;;;;;7.00;4.33;;;;;10.15;85.07;101455.22;4997677;28;45287;-56
2023/12/27 06:20:18;;;;;;;;;10.67;7.00;;;;;10.17;83.99;101463.09;4997571;28;45392;-55
2023/12/27 06:22:43;;;;;;;;;7.67;6.33;;;;;10.17;84.51;101468.41;4996579;28;45458;-56
2023/12/27 06:25:08;;;;;;;;;10.00;5.67;;;;;10.20;84.22;101474.31;4996058;28;45452;-56
2023/12/27 06:27:34;;;;;;;;;5.00;5.00;;;;;10.08;84.03;101448.75;4997414;28;45808;-56
2023/12/27 06:29:59;;;;;;;;;6.67;6.00;;;;;10.13;84.75;101474.94;4997501;28;45534;-56
2023/12/27 06:32:24;;;;;;;;;1.33;1.33;;;;;10.00;84.53;101459.16;4996402;28;45418;-54
2023/12/27 06:34:50;;;;;;;;;12.00;6.00;;;;;10.11;84.23;101476.88;4996999;28;46602;-56
2023/12/27 06:37:15;;;;;;;;;6.33;5.00;;;;;10.08;84.16;101470.00;4997080;28;45385;-56
2023/12/27 06:39:41;;;;;;;;;8.67;5.00;;;;;10.05;84.22;101472.91;4997251;28;45374;-56
2023/12/27 06:42:07;;;;;;;;;6.00;6.00;;;;;9.95;84.45;101456.03;4997078;28;45303;-57
2023/12/27 06:44:32;;;;;;;;;15.00;7.00;;;;;9.96;84.47;101463.88;4996565;28;46213;-56
2023/12/27 06:46:58;;;;;;;;;8.33;6.00;;;;;9.92;84.43;101443.00;4996593;28;45287;-56
2023/12/27 06:49:23;;;;;;;;;7.00;7.00;;;;;9.97;84.52;101444.28;4996972;28;45252;-54
2023/12/27 06:51:48;;;;;;;;;7.00;6.00;;;;;9.96;84.47;101447.09;4996959;28;45316;-56
2023/12/27 06:54:13;;;;;;;;;11.67;8.00;;;;;9.96;84.32;101457.72;4996384;28;51659;-55
2023/12/27 06:56:39;;;;;;;;;11.67;8.00;;;;;9.94;84.38;101451.66;4996826;28;45438;-48
2023/12/27 06:59:05;;;;;;;;;8.00;8.00;;;;;9.93;84.51;101456.13;4996604;28;45468;-55
2023/12/27 07:01:30;;;;;;;;;9.33;7.33;;;;;9.93;84.38;101442.00;4996876;28;45433;-56
2023/12/27 07:03:56;;;;;;;;;13.00;7.00;;;;;9.89;84.20;101443.22;4996178;28;45431;-57
2023/12/27 07:06:21;;;;;;;;;10.00;5.00;;;;;9.87;84.44;101438.06;4995301;28;45445;-56
2023/12/27 07:08:46;;;;;;;;;15.67;6.67;;;;;9.87;84.35;101453.16;4996825;28;45432;-55
2023/12/27 07:11:18;;;;;;;;;9.67;7.67;;;;;9.73;84.02;101419.72;4996806;28;45287;-57
2023/12/27 07:13:46;;;;;;;;;13.00;8.00;;;;;9.81;84.08;101441.19;4996413;28;46270;-57
2023/12/27 07:16:14;;;;;;;;;7.00;5.67;;;;;9.75;84.03;101428.41;4996826;28;45405;-56
2023/12/27 07:18:40;;;;;;;;;8.33;6.00;;;;;9.73;84.50;101425.91;4996608;28;45331;-57
2023/12/27 07:21:05;;;;;;;;;10.00;7.00;;;;;9.78;84.49;101440.63;4996696;28;45620;-57
2023/12/27 07:23:31;;;;;;;;;8.00;7.00;;;;;9.77;84.16;101436.25;4996503;28;46015;-50
2023/12/27 07:25:59;;;;;;;;;8.00;6.67;;;;;9.75;83.94;101429.25;4996647;28;45256;-54
2023/12/27 07:28:25;;;;;;;;;12.33;5.00;;;;;9.73;84.04;101423.25;4996955;28;45248;-56
2023/12/27 07:30:50;;;;;;;;;8.67;5.00;;;;;9.70;84.10;101410.19;4996362;28;45418;-55
2023/12/27 07:33:15;;;;;;;;;6.67;6.67;;;;;9.69;83.95;101424.47;4996265;28;52755;-56
2023/12/27 07:35:42;;;;;;;;;7.67;7.67;;;;;9.59;84.36;101412.88;4996325;28;45342;-56
2023/12/27 07:38:08;;;;;;;;;8.00;7.00;;;;;9.64;84.16;101431.94;4996467;28;45386;-55
2023/12/27 07:40:34;;;;;;;;;10.33;7.00;;;;;9.61;84.20;101428.69;4996196;28;45456;-56
2023/12/27 07:43:00;;;;;;;;;8.33;7.00;;;;;9.60;84.00;101424.34;4996201;28;46103;-53
2023/12/27 07:45:25;;;;;;;;;10.00;8.00;;;;;9.58;83.88;101426.28;4996200;28;45343;-53
2023/12/27 07:47:50;;;;;;;;;12.00;7.00;;;;;9.50;84.32;101413.63;4996197;28;45650;-51
2023/12/27 07:50:16;;;;;;;;;11.33;9.33;;;;;9.56;83.98;101417.56;4996545;28;46021;-55
2023/12/27 07:52:42;;;;;;;;;16.33;10.67;;;;;9.55;84.37;101426.53;4996835;28;45344;-53
2023/12/27 07:55:08;;;;;;;;;13.00;9.67;;;;;9.51;84.01;101417.94;4995806;28;45319;-55
2023/12/27 07:57:33;;;;;;;;;10.67;7.67;;;;;9.48;83.93;101421.72;4996037;28;45335;-50
2023/12/27 07:59:58;;;;;;;;;8.67;6.67;;;;;9.53;84.18;101424.00;4996294;28;45513;-55
2023/12/27 08:02:24;;;;;;;;;6.33;6.33;;;;;9.54;84.06;101423.03;4995918;28;46118;-55
2023/12/27 08:04:50;;;;;;;;;7.33;7.33;;;;;9.54;83.63;101424.84;4995922;28;45432;-56
2023/12/27 08:07:16;;;;;;;;;6.00;2.00;;;;;9.53;83.92;101423.16;4996098;28;45443;-56
2023/12/27 08:09:41;;;;;;;;;10.00;9.67;;;;;9.53;83.93;101424.00;4996204;28;45208;-54
2023/12/27 08:12:07;;;;;;;;;12.00;7.00;;;;;9.54;83.71;101419.53;4995587;28;47221;-54
2023/12/27 08:14:32;;;;;;;;;13.33;9.67;;;;;9.49;83.45;101418.09;4995720;28;45320;-56
2023/12/27 08:16:58;;;;;;;;;10.00;7.00;;;;;9.43;83.26;101410.59;4995816;28;45342;-55
2023/12/27 08:19:23;;;;;;;;;12.67;6.33;;;;;9.54;83.29;101431.00;4998981;28;45449;-56
2023/12/27 08:21:48;;;;;;;;;9.00;6.00;;;;;9.54;83.24;101428.34;4999070;28;45323;-56
2023/12/27 08:24:14;;;;;;;;;16.33;8.00;;;;;9.56;82.78;101430.84;4999078;28;45311;-57
2023/12/27 08:26:39;;;;;;;;;13.67;9.33;;;;;9.57;83.03;101428.09;4998846;28;45778;-54
2023/12/27 08:29:04;;;;;;;;;10.00;7.00;;;;;9.60;82.82;101432.31;4999498;28;45230;-56
2023/12/27 08:31:30;;;;;;;;;9.00;7.67;;;;;9.57;82.44;101440.53;4999223;28;46129;-56
2023/12/27 08:33:58;;;;;;;;;9.33;9.33;;;;;9.48;81.74;101416.41;4999345;28;45322;-55
2023/12/27 08:36:24;;;;;;;;;9.00;7.00;;;;;9.54;81.75;101433.66;4999013;28;45407;-57
2023/12/27 08:38:50;;;;;;;;;12.67;9.00;;;;;9.52;81.40;101438.22;4999122;28;45427;-55
2023/12/27 08:41:15;;;;;;;;;6.33;2.00;;;;;9.52;81.18;101429.41;4998938;28;46309;-55
2023/12/27 08:43:42;;;;;;;;;8.67;6.00;;;;;9.50;81.19;101426.91;4998948;28;45425;-55
2023/12/27 08:46:11;;;;;;;;;7.67;6.67;;;;;9.38;80.95;101399.50;4999205;28;45383;-56
2023/12/27 08:48:36;;;;;;;;;12.67;9.33;;;;;9.55;80.86;101419.41;4999094;28;45354;-56
2023/12/27 08:51:02;;;;;;;;;16.67;11.00;;;;;9.60;80.71;101430.50;4998311;28;47078;-57
2023/12/27 08:53:29;;;;;;;;;9.33;8.00;;;;;9.63;80.68;101422.28;4998724;28;45275;-55
2023/12/27 08:55:54;;;;;;;;;10.33;6.33;;;;;9.66;80.34;101422.03;4998672;28;45366;-57
2023/12/27 08:58:20;;;;;;;;;12.33;11.00;;;;;9.70;80.57;101414.66;4998825;28;45406;-55
2023/12/27 09:00:45;;;;;;;;;11.33;7.67;;;;;9.66;80.47;101402.59;4998752;28;46501;-56
2023/12/27 09:03:11;;;;;;;;;20.33;14.33;;;;;9.74;80.41;101419.59;4998463;28;45465;-55
2023/12/27 09:05:36;;;;;;;;;13.33;9.33;;;;;9.79;79.86;101410.41;4998847;28;45433;-56
2023/12/27 09:08:02;;;;;;;;;8.33;8.00;;;;;9.86;79.39;101406.25;4998807;28;45515;-55
2023/12/27 09:10:27;;;;;;;;;12.33;8.33;;;;;9.93;79.17;101410.97;4997278;28;46252;-54
2023/12/27 09:12:53;;;;;;;;;13.00;10.00;;;;;9.96;78.36;101407.22;4998531;28;45538;-56
2023/12/27 09:15:18;;;;;;;;;11.33;11.00;;;;;9.96;78.51;101407.22;4998717;28;45381;-56
2023/12/27 09:17:43;;;;;;;;;14.00;10.00;;;;;9.95;77.87;101400.22;4998914;28;45502;-55
2023/12/27 09:20:09;;;;;;;;;11.67;9.00;;;;;10.04;78.19;101401.28;4998152;28;45635;-57
2023/12/27 09:22:35;;;;;;;;;14.33;8.67;;;;;10.08;77.71;101403.53;4998353;28;45450;-54
2023/12/27 09:25:00;;;;;;;;;6.33;6.33;;;;;10.16;77.60;101395.78;4998544;28;45412;-57
2023/12/27 09:27:26;;;;;;;;;14.67;11.67;;;;;10.20;76.42;101402.53;4998552;28;45410;-56
2023/12/27 09:29:52;;;;;;;;;11.67;7.33;;;;;10.27;76.69;101397.56;4997186;28;45346;-54
2023/12/27 09:32:18;;;;;;;;;10.00;7.33;;;;;10.33;76.85;101399.72;4996834;28;45325;-56
2023/12/27 09:34:43;;;;;;;;;11.00;6.67;;;;;10.42;75.60;101403.41;4998321;28;45350;-54
2023/12/27 09:37:08;;;;;;;;;11.33;9.33;;;;;10.59;75.23;101409.97;4998290;28;45620;-54
2023/12/27 09:39:34;;;;;;;;;9.33;9.33;;;;;10.72;74.58;101392.81;4997944;28;45916;-56
2023/12/27 09:42:00;;;;;;;;;14.33;8.00;;;;;10.87;74.26;101397.78;4997968;28;45396;-56
2023/12/27 09:44:26;;;;;;;;;12.33;9.67;;;;;11.15;72.84;101396.22;4997877;28;45723;-53
2023/12/27 09:46:52;;;;;;;;;8.67;7.67;;;;;11.41;71.92;101391.25;4998359;28;45489;-51
2023/12/27 09:49:20;;;;;;;;;14.00;9.00;;;;;11.72;70.88;101384.06;4997964;28;47029;-54
2023/12/27 09:51:47;;;;;;;;;7.33;7.00;;;;;11.96;69.87;101381.00;4997940;28;45428;-56
2023/12/27 09:54:14;;;;;;;;;10.00;10.00;;;;;12.17;68.48;101391.50;4998053;28;45335;-52
2023/12/27 09:56:40;;;;;;;;;7.00;7.00;;;;;12.49;69.18;101377.88;4998020;28;45216;-52
2023/12/27 09:59:06;;;;;;;;;8.00;8.00;;;;;12.90;68.39;101368.63;4997591;28;46198;-54
2023/12/27 10:01:37;;;;;;;;;6.67;6.00;;;;;13.50;65.78;101367.38;4997762;28;45341;-55
2023/12/27 10:04:23;;;;;;;;;13.33;8.00;;;;;13.80;64.30;101360.81;4997736;28;45346;-55
2023/12/27 10:06:49;;;;;;;;;8.00;6.67;;;;;13.85;63.43;101355.84;4997815;28;45310;-55
2023/12/27 10:09:15;;;;;;;;;9.33;7.00;;;;;14.03;62.00;101353.16;4997435;28;45303;-54
2023/12/27 10:11:43;;;;;;;;;9.33;6.00;;;;;14.28;63.32;101355.03;4997333;28;45414;-54
2023/12/27 10:14:10;;;;;;;;;8.67;7.67;;;;;14.18;60.36;101341.75;4997505;28;45425;-52
2023/12/27 10:16:38;;;;;;;;;7.33;4.00;;;;;13.90;61.64;101343.69;4997474;28;45561;-51
2023/12/27 10:19:07;;;;;;;;;7.00;7.00;;;;;13.86;62.13;101336.13;4997251;28;45326;-51
2023/12/27 10:21:41;;;;;;;;;10.33;9.00;;;;;14.29;61.07;101329.97;4997145;28;45515;-54
2023/12/27 10:24:07;;;;;;;;;8.00;7.67;;;;;14.78;59.29;101324.09;4997471;28;45321;-52
2023/12/27 10:26:32;;;;;;;;;8.67;6.33;;;;;14.79;58.98;101320.41;4997303;28;45390;-55
2023/12/27 10:28:59;;;;;;;;;10.33;10.33;;;;;14.67;58.74;101320.69;4997123;28;45441;-57
2023/12/27 10:31:25;;;;;;;;;6.00;6.00;;;;;14.67;58.94;101323.38;4996091;28;45442;-56
2023/12/27 10:33:51;;;;;;;;;8.00;7.00;;;;;14.78;58.88;101319.56;4997380;28;45406;-54
2023/12/27 10:36:17;;;;;;;;;7.33;7.33;;;;;14.57;58.97;101322.63;4997653;28;45443;-54
2023/12/27 10:38:45;;;;;;;;;11.33;7.67;;;;;14.33;59.15;101307.25;4997183;28;45266;-57
2023/12/27 10:41:10;;;;;;;;;10.33;9.00;;;;;14.20;59.70;101304.16;4996802;28;45480;-55
2023/12/27 10:43:35;;;;;;;;;10.33;8.00;;;;;13.95;59.95;101289.75;4996983;28;45319;-54
2023/12/27 10:46:07;;;;;;;;;8.00;6.00;;;;;14.25;60.41;101287.63;4997197;28;45495;-56
2023/12/27 10:48:34;;;;;;;;;7.33;7.33;;;;;14.51;59.72;101277.78;4996939;28;46467;-57
2023/12/27 10:50:59;;;;;;;;;6.00;6.00;;;;;14.35;59.15;101273.13;4996869;28;45285;-51
2023/12/27 10:53:29;;;;;;;;;7.33;5.00;;;;;14.14;59.26;101261.94;4996964;28;45388;-52
2023/12/27 10:55:59;;;;;;;;;9.00;8.67;;;;;13.80;61.06;101261.88;4996974;28;45347;-51
2023/12/27 10:58:25;;;;;;;;;4.00;4.00;;;;;13.76;60.87;101250.66;4996628;28;46475;-53
2023/12/27 11:00:53;;;;;;;;;9.33;8.00;;;;;13.65;60.55;101254.41;4996946;28;45599;-49
2023/12/27 11:03:19;;;;;;;;;5.33;5.33;;;;;13.51;60.48;101254.09;4996840;28;45319;-52
2023/12/27 11:05:45;;;;;;;;;9.00;4.00;;;;;13.52;60.62;101251.25;4996937;28;45334;-52
2023/12/27 11:08:13;;;;;;;;;8.67;8.67;;;;;13.51;61.08;101225.53;4996676;28;46169;-52
2023/12/27 11:10:40;;;;;;;;;7.67;7.00;;;;;13.75;61.05;101232.09;4996473;28;45386;-54
2023/12/27 11:13:09;;;;;;;;;9.00;7.33;;;;;13.76;60.04;101213.22;4996596;28;45454;-54
2023/12/27 11:15:39;;;;;;;;;10.33;7.67;;;;;13.62;59.50;101221.81;4996644;28;45397;-51